createdAt,value
2018-06-01T00:00:39.785Z,99.99
2018-06-01T00:01:39.750Z,99.99
2018-06-01T00:02:39.745Z,99.99
2018-06-01T00:03:39.732Z,99.99
2018-06-01T00:04:39.725Z,99.99
2018-06-01T00:05:39.714Z,99.99
2018-06-01T00:06:39.705Z,99.99
2018-06-01T00:07:39.898Z,99.99
2018-06-01T00:08:39.688Z,99.99
2018-06-01T00:09:39.679Z,99.99
2018-06-01T00:10:39.669Z,99.99
2018-06-01T00:11:39.662Z,99.99
2018-06-01T00:12:39.653Z,99.99
2018-06-01T00:13:39.642Z,99.99
2018-06-01T00:14:39.634Z,99.99
2018-06-01T00:15:39.627Z,99.99
2018-06-01T00:16:39.616Z,99.99
2018-06-01T11:42:30.552Z,99.99
2018-06-01T11:43:30.475Z,99.99
2018-06-01T11:44:30.470Z,99.99
2018-06-01T11:45:30.446Z,99.99
2018-06-01T11:46:30.437Z,99.99
2018-06-01T11:47:30.429Z,99.99
2018-06-01T11:48:30.409Z,99.99
2018-06-01T11:49:30.400Z,99.11
2018-06-01T11:50:30.390Z,96.51
2018-06-01T11:51:30.390Z,95.55
2018-06-01T11:52:30.375Z,95.40
2018-06-01T11:53:30.357Z,93.96
2018-06-01T11:54:30.347Z,91.64
2018-06-01T11:55:30.339Z,89.72
2018-06-01T11:56:30.338Z,89.23
2018-06-01T11:57:30.322Z,86.63
2018-06-01T11:58:30.312Z,82.29
2018-06-01T11:59:30.303Z,82.49
2018-06-01T12:00:30.297Z,82.78
2018-06-01T12:01:30.291Z,82.49
2018-06-01T12:02:30.283Z,79.79
2018-06-01T12:03:30.273Z,79.02
2018-06-01T12:04:30.264Z,79.50
2018-06-01T12:05:30.257Z,79.11
2018-06-01T12:06:30.250Z,79.89
2018-06-01T12:07:30.245Z,78.19
2018-06-01T12:08:30.238Z,76.50
2018-06-01T12:09:30.227Z,75.34
2018-06-01T12:10:30.220Z,74.27
2018-06-01T12:11:30.214Z,75.24
2018-06-01T12:12:30.463Z,75.24
2018-06-01T12:13:30.200Z,74.66
2018-06-01T12:14:30.199Z,74.27
2018-06-01T12:15:30.187Z,73.99
2018-06-01T12:16:30.181Z,73.35
2018-06-01T12:17:30.236Z,72.19
2018-06-01T12:18:30.167Z,72.48
2018-06-01T12:19:30.161Z,72.00
2018-06-01T12:20:30.155Z,71.03
2018-06-01T12:21:30.148Z,70.87
2018-06-01T12:22:30.141Z,68.65
2018-06-01T12:23:30.136Z,67.78
2018-06-01T12:24:30.128Z,67.59
2018-06-01T12:25:30.122Z,67.78
2018-06-01T12:26:30.116Z,67.75
2018-06-01T12:27:30.111Z,67.59
2018-06-01T12:28:30.104Z,67.49
2018-06-01T12:29:30.098Z,67.40
2018-06-01T12:30:30.093Z,67.88
2018-06-01T12:31:30.086Z,67.82
2018-06-01T12:32:30.080Z,66.75
2018-06-01T12:33:30.081Z,64.08
2018-06-01T12:34:30.071Z,63.95
2018-06-01T12:35:30.064Z,64.14
2018-06-01T12:36:30.259Z,64.37
2018-06-01T12:37:30.056Z,63.40
2018-06-01T12:38:30.045Z,63.66
2018-06-01T12:39:30.041Z,64.34
2018-06-01T12:40:30.038Z,64.18
2018-06-01T12:41:30.031Z,63.79
2018-06-01T12:42:30.025Z,64.27
2018-06-01T12:43:30.019Z,63.31
2018-06-01T12:44:30.015Z,63.02
2018-06-01T12:45:30.008Z,62.34
2018-06-01T12:46:30.002Z,62.50
2018-06-01T12:47:29.996Z,62.89
2018-06-01T12:48:29.993Z,62.89
2018-06-01T12:49:29.987Z,62.98
2018-06-01T12:50:29.980Z,62.73
2018-06-01T12:51:29.977Z,62.82
2018-06-01T12:52:29.971Z,61.95
2018-06-01T12:53:29.965Z,62.24
2018-06-01T12:54:29.958Z,61.47
2018-06-01T12:55:29.956Z,60.50
2018-06-01T12:56:29.950Z,59.92
2018-06-01T12:57:29.945Z,60.69
2018-06-01T12:58:29.938Z,60.99
2018-06-01T12:59:29.932Z,60.79
2018-06-01T13:00:29.927Z,61.08
2018-06-01T13:01:29.925Z,60.99
2018-06-01T13:02:29.918Z,60.92
2018-06-01T13:03:29.940Z,60.11
2018-06-01T13:04:29.907Z,60.99
2018-06-01T13:05:29.902Z,60.99
2018-06-01T13:06:30.096Z,60.96
2018-06-01T13:07:29.891Z,60.86
2018-06-01T13:08:29.885Z,60.47
2018-06-01T13:09:29.884Z,60.96
2018-06-01T13:10:29.878Z,61.15
2018-06-01T13:11:29.871Z,62.02
2018-06-01T13:12:29.865Z,62.02
2018-06-01T13:13:29.861Z,60.76
2018-06-01T13:14:29.852Z,60.96
2018-06-01T13:15:29.848Z,60.57
2018-06-01T13:16:29.844Z,60.64
2018-06-01T13:17:29.837Z,60.86
2018-06-01T13:18:29.832Z,60.76
2018-06-01T13:19:29.826Z,60.76
2018-06-01T13:20:29.851Z,61.63
2018-06-01T13:21:29.816Z,61.34
2018-06-01T13:22:29.809Z,61.05
2018-06-01T13:23:29.804Z,60.86
2018-06-01T13:24:29.799Z,59.89
2018-06-01T13:25:29.793Z,59.99
2018-06-01T13:26:29.788Z,60.28
2018-06-01T13:27:29.781Z,60.54
2018-06-01T13:28:29.777Z,59.86
2018-06-01T13:29:29.770Z,59.12
2018-06-01T13:30:29.764Z,59.70
2018-06-01T13:31:29.760Z,59.89
2018-06-01T13:32:29.753Z,59.19
2018-06-01T13:33:29.748Z,59.12
2018-06-01T13:34:29.746Z,58.12
2018-06-01T13:35:29.736Z,57.93
2018-06-01T13:36:29.931Z,58.22
2018-06-01T13:37:29.726Z,57.74
2018-06-01T13:38:29.719Z,58.03
2018-06-01T13:39:29.718Z,57.93
2018-06-01T13:40:29.709Z,57.87
2018-06-01T13:41:29.706Z,58.35
2018-06-01T13:42:29.697Z,58.25
2018-06-01T13:43:29.691Z,58.06
2018-06-01T13:44:29.689Z,56.71
2018-06-01T13:45:29.679Z,56.51
2018-06-01T13:46:29.673Z,56.61
2018-06-01T13:47:29.668Z,55.87
2018-06-01T13:48:29.663Z,55.19
2018-06-01T13:49:29.656Z,54.77
2018-06-01T13:50:29.650Z,55.16
2018-06-01T13:51:29.644Z,55.47
2018-06-01T13:52:29.640Z,55.67
2018-06-01T13:53:29.635Z,55.47
2018-06-01T13:54:29.628Z,54.80
2018-06-01T13:55:29.622Z,54.41
2018-06-01T13:56:29.619Z,54.90
2018-06-01T13:57:29.611Z,54.71
2018-06-01T13:58:29.606Z,54.99
2018-06-01T13:59:29.600Z,55.29
2018-06-01T14:00:29.605Z,54.99
2018-06-01T14:01:29.590Z,55.67
2018-06-01T14:02:29.586Z,55.57
2018-06-01T14:03:29.578Z,54.99
2018-06-01T14:04:29.574Z,55.31
2018-06-01T14:05:29.569Z,54.93
2018-06-01T14:06:29.561Z,54.73
2018-06-01T14:07:29.557Z,54.53
2018-06-01T14:08:29.556Z,54.63
2018-06-01T14:09:29.546Z,54.35
2018-06-01T14:10:29.540Z,54.73
2018-06-01T14:11:29.537Z,54.35
2018-06-01T14:12:29.530Z,54.83
2018-06-01T14:13:29.532Z,54.73
2018-06-01T14:14:29.519Z,54.83
2018-06-01T14:15:29.516Z,54.73
2018-06-01T14:16:29.509Z,54.93
2018-06-01T14:17:29.506Z,54.73
2018-06-01T14:18:29.499Z,54.75
2018-06-01T14:19:29.493Z,54.37
2018-06-01T14:20:29.489Z,54.01
2018-06-01T14:21:29.484Z,54.30
2018-06-01T14:22:29.480Z,53.50
2018-06-01T14:23:29.474Z,53.31
2018-06-01T14:24:29.469Z,53.89
2018-06-01T14:25:29.465Z,54.37
2018-06-01T14:26:29.463Z,54.47
2018-06-01T14:27:29.455Z,53.79
2018-06-01T14:28:29.451Z,53.63
2018-06-01T14:29:29.447Z,53.43
2018-06-01T14:30:29.441Z,53.81
2018-06-01T14:31:29.435Z,53.04
2018-06-01T14:32:29.432Z,53.33
2018-06-01T14:33:29.426Z,53.11
2018-06-01T14:34:29.422Z,52.92
2018-06-01T14:35:29.417Z,53.89
2018-06-01T14:36:29.412Z,54.57
2018-06-01T14:37:29.409Z,54.57
2018-06-01T14:38:29.404Z,53.31
2018-06-01T14:39:29.397Z,52.34
2018-06-01T14:40:29.419Z,52.14
2018-06-01T14:41:29.389Z,51.76
2018-06-01T14:42:29.384Z,50.28
2018-06-01T14:43:29.379Z,50.67
2018-06-01T14:44:29.374Z,50.67
2018-06-01T14:45:29.371Z,49.70
2018-06-01T14:46:29.364Z,50.28
2018-06-01T14:47:29.360Z,51.64
2018-06-01T14:48:29.355Z,51.73
2018-06-01T14:49:29.352Z,51.83
2018-06-01T14:50:29.347Z,52.22
2018-06-01T14:51:29.341Z,51.15
2018-06-01T14:52:29.338Z,51.15
2018-06-01T14:53:29.336Z,50.96
2018-06-01T14:54:29.327Z,51.64
2018-06-01T14:55:29.318Z,51.64
2018-06-01T14:56:29.314Z,51.15
2018-06-01T14:57:29.310Z,51.35
2018-06-01T14:58:29.303Z,51.15
2018-06-01T14:59:29.299Z,51.64
2018-06-01T15:00:29.293Z,51.15
2018-06-01T15:01:29.288Z,51.32
2018-06-01T15:02:29.283Z,51.61
2018-06-01T15:03:29.278Z,52.09
2018-06-01T15:04:29.273Z,51.83
2018-06-01T15:05:29.267Z,51.81
2018-06-01T15:06:29.261Z,51.81
2018-06-01T15:07:29.255Z,52.99
2018-06-01T15:08:29.293Z,52.41
2018-06-01T15:09:29.251Z,52.00
2018-06-01T15:10:29.240Z,52.67
2018-06-01T15:11:29.235Z,52.58
2018-06-01T15:12:29.228Z,52.67
2018-06-01T15:13:29.225Z,53.16
2018-06-01T15:14:29.218Z,52.97
2018-06-01T15:15:29.213Z,52.31
2018-06-01T15:16:29.206Z,51.64
2018-06-01T15:17:29.202Z,50.38
2018-06-01T15:18:29.198Z,50.38
2018-06-01T15:19:29.197Z,50.84
2018-06-01T15:20:29.187Z,51.83
2018-06-01T15:21:29.187Z,51.64
2018-06-01T15:22:29.174Z,51.83
2018-06-01T15:23:29.169Z,52.12
2018-06-01T15:24:29.166Z,50.48
2018-06-01T15:25:29.160Z,50.38
2018-06-01T15:26:29.157Z,50.67
2018-06-01T15:27:29.149Z,50.57
2018-06-01T15:28:29.144Z,50.57
2018-06-01T15:29:29.139Z,51.44
2018-06-01T15:30:29.132Z,51.73
2018-06-01T15:31:29.128Z,51.93
2018-06-01T15:32:29.121Z,51.35
2018-06-01T15:33:29.118Z,52.99
2018-06-01T15:34:29.111Z,51.73
2018-06-01T15:35:29.107Z,50.18
2018-06-01T15:36:29.303Z,50.57
2018-06-01T15:37:29.097Z,50.76
2018-06-01T15:38:29.090Z,51.06
2018-06-01T15:39:29.086Z,51.66
2018-06-01T15:40:29.081Z,51.95
2018-06-01T15:41:29.075Z,51.95
2018-06-01T15:42:29.067Z,51.25
2018-06-01T15:43:29.064Z,50.86
2018-06-01T15:44:29.059Z,49.60
2018-06-01T15:45:29.053Z,49.41
2018-06-01T15:46:29.047Z,50.18
2018-06-01T15:47:29.190Z,50.09
2018-06-01T15:48:29.037Z,50.28
2018-06-01T15:49:29.034Z,49.99
2018-06-01T15:50:29.024Z,49.51
2018-06-01T15:51:29.020Z,49.60
2018-06-01T15:52:29.015Z,48.74
2018-06-01T15:53:29.009Z,48.83
2018-06-01T15:54:29.004Z,48.93
2018-06-01T15:55:28.997Z,48.93
2018-06-01T15:56:28.994Z,49.02
2018-06-01T15:57:28.988Z,49.32
2018-06-01T15:58:28.980Z,49.22
2018-06-01T15:59:28.977Z,49.60
2018-06-01T16:00:28.971Z,48.93
2018-06-01T16:01:28.966Z,49.12
2018-06-01T16:02:28.958Z,49.51
2018-06-01T16:03:28.961Z,49.32
2018-06-01T16:04:28.949Z,49.22
2018-06-01T16:05:28.944Z,49.32
2018-06-01T16:06:28.939Z,49.22
2018-06-01T16:07:28.932Z,48.83
2018-06-01T16:08:28.928Z,49.02
2018-06-01T16:09:28.923Z,48.83
2018-06-01T16:10:28.916Z,49.02
2018-06-01T16:11:28.912Z,48.74
2018-06-01T16:12:28.912Z,49.12
2018-06-01T16:13:28.901Z,48.93
2018-06-01T16:14:28.895Z,49.41
2018-06-01T16:15:28.888Z,49.44
2018-06-01T16:16:28.884Z,49.41
2018-06-01T16:17:28.878Z,49.22
2018-06-01T16:18:28.872Z,48.76
2018-06-01T16:19:28.867Z,49.41
2018-06-01T16:20:28.862Z,49.22
2018-06-01T16:21:28.860Z,49.63
2018-06-01T16:22:28.850Z,49.51
2018-06-01T16:23:28.845Z,49.44
2018-06-01T16:24:28.840Z,49.80
2018-06-01T16:25:28.837Z,50.60
2018-06-01T16:26:28.830Z,50.40
2018-06-01T16:27:28.824Z,50.70
2018-06-01T16:28:28.819Z,51.56
2018-06-01T16:29:28.814Z,50.79
2018-06-01T16:30:28.809Z,50.70
2018-06-01T16:31:28.823Z,50.50
2018-06-01T16:32:28.802Z,50.28
2018-06-01T16:33:28.792Z,50.18
2018-06-01T16:34:28.788Z,50.48
2018-06-01T16:35:28.782Z,49.63
2018-06-01T16:36:28.776Z,49.63
2018-06-01T16:37:28.771Z,49.90
2018-06-01T16:38:28.764Z,49.51
2018-06-01T16:39:28.761Z,49.70
2018-06-01T16:40:28.754Z,49.54
2018-06-01T16:41:28.752Z,49.92
2018-06-01T16:42:28.746Z,49.70
2018-06-01T16:43:28.737Z,49.51
2018-06-01T16:44:28.732Z,49.70
2018-06-01T16:45:28.727Z,49.90
2018-06-01T16:46:28.723Z,49.82
2018-06-01T16:47:28.715Z,49.90
2018-06-01T16:48:28.712Z,50.18
2018-06-01T16:49:28.704Z,50.70
2018-06-01T16:50:28.708Z,49.63
2018-06-01T16:51:28.695Z,49.82
2018-06-01T16:52:28.688Z,49.44
2018-06-01T16:53:28.685Z,49.63
2018-06-01T16:54:28.680Z,49.82
2018-06-01T16:55:28.673Z,49.63
2018-06-01T16:56:28.668Z,49.92
2018-06-01T16:57:28.661Z,49.82
2018-06-01T16:58:28.659Z,49.73
2018-06-01T16:59:28.652Z,49.54
2018-06-01T17:00:28.647Z,49.05
2018-06-01T17:01:28.642Z,49.24
2018-06-01T17:02:28.636Z,49.34
2018-06-01T17:03:28.629Z,48.95
2018-06-01T17:10:28.594Z,48.95
2018-06-01T17:11:28.595Z,49.24
2018-06-01T17:12:28.588Z,49.63
2018-06-01T17:13:28.579Z,49.44
2018-06-01T17:14:28.575Z,49.34
2018-06-01T17:15:28.609Z,49.73
2018-06-01T17:16:28.563Z,49.44
2018-06-01T17:17:28.558Z,49.24
2018-06-01T17:18:28.552Z,49.15
2018-06-01T17:19:28.547Z,49.24
2018-06-01T17:20:28.543Z,49.24
2018-06-01T17:21:28.537Z,49.05
2018-06-01T17:22:28.530Z,49.63
2018-06-01T17:23:28.530Z,49.54
2018-06-01T17:24:28.521Z,49.73
2018-06-01T17:25:28.519Z,49.92
2018-06-01T17:26:28.508Z,49.63
2018-06-01T17:27:28.503Z,50.02
2018-06-01T17:28:28.499Z,49.73
2018-06-01T17:29:28.494Z,49.34
2018-06-01T17:30:28.488Z,49.15
2018-06-01T17:31:28.485Z,49.54
2018-06-01T17:32:28.479Z,49.24
2018-06-01T17:33:28.473Z,49.63
2018-06-01T17:34:28.467Z,49.63
2018-06-01T17:35:28.463Z,49.73
2018-06-01T17:36:28.458Z,49.73
2018-06-01T17:37:28.452Z,50.12
2018-06-01T17:38:28.446Z,49.37
2018-06-01T17:39:28.442Z,49.34
2018-06-01T17:40:28.436Z,49.05
2018-06-01T17:41:28.432Z,48.86
2018-06-01T17:42:28.425Z,48.95
2018-06-01T17:43:28.421Z,48.95
2018-06-01T17:44:28.416Z,49.05
2018-06-01T17:45:28.411Z,48.95
2018-06-01T17:46:28.405Z,49.05
2018-06-01T17:47:28.399Z,49.05
2018-06-01T17:48:28.395Z,49.24
2018-06-01T17:49:28.390Z,49.24
2018-06-01T17:50:28.388Z,49.05
2018-06-01T17:51:28.378Z,48.76
2018-06-01T17:52:28.377Z,48.47
2018-06-01T17:53:28.369Z,48.66
2018-06-01T17:54:28.363Z,48.37
2018-06-01T17:55:28.359Z,47.69
2018-06-01T17:56:28.354Z,47.79
2018-06-01T17:57:28.355Z,48.08
2018-06-01T17:58:28.343Z,48.18
2018-06-01T17:59:28.338Z,48.66
2018-06-01T18:00:28.334Z,48.27
2018-06-01T18:01:28.328Z,47.99
2018-06-01T18:02:28.322Z,47.50
2018-06-01T18:03:28.317Z,47.41
2018-06-01T18:04:28.312Z,47.60
2018-06-01T18:05:28.307Z,47.89
2018-06-01T18:06:28.300Z,47.69
2018-06-01T18:07:28.296Z,47.60
2018-06-01T18:08:28.290Z,47.60
2018-06-01T18:09:28.287Z,47.79
2018-06-01T18:10:28.280Z,46.73
2018-06-01T18:11:28.275Z,47.21
2018-06-01T18:12:28.270Z,46.73
2018-06-01T18:13:28.267Z,47.21
2018-06-01T18:14:28.259Z,46.84
2018-06-01T18:15:28.254Z,46.73
2018-06-01T18:16:28.249Z,46.63
2018-06-01T18:17:28.245Z,47.21
2018-06-01T18:18:28.237Z,47.79
2018-06-01T18:19:28.233Z,47.99
2018-06-01T18:20:28.230Z,47.79
2018-06-01T18:21:28.227Z,47.99
2018-06-01T18:22:28.286Z,48.37
2018-06-01T18:23:28.213Z,48.47
2018-06-01T18:24:28.251Z,47.31
2018-06-01T18:25:28.203Z,46.92
2018-06-01T18:26:28.198Z,47.21
2018-06-01T18:27:28.198Z,47.52
2018-06-01T18:28:28.189Z,46.83
2018-06-01T18:29:28.181Z,46.73
2018-06-01T18:30:28.176Z,46.63
2018-06-01T18:31:28.172Z,46.73
2018-06-01T18:32:28.165Z,47.02
2018-06-01T18:33:28.161Z,47.11
2018-06-01T18:34:28.155Z,46.53
2018-06-01T18:35:28.149Z,46.73
2018-06-01T18:36:28.145Z,45.86
2018-06-01T18:37:28.140Z,46.83
2018-06-01T18:38:28.134Z,46.53
2018-06-01T18:39:28.127Z,46.73
2018-06-01T18:40:28.123Z,46.63
2018-06-01T18:41:28.118Z,46.53
2018-06-01T18:42:28.112Z,46.53
2018-06-01T18:43:28.107Z,46.63
2018-06-01T18:44:28.104Z,46.53
2018-06-01T18:45:28.097Z,46.63
2018-06-01T18:46:28.291Z,46.83
2018-06-01T18:47:28.086Z,46.53
2018-06-01T18:48:28.081Z,46.63
2018-06-01T18:49:28.120Z,46.83
2018-06-01T18:50:28.069Z,46.83
2018-06-01T18:51:28.065Z,46.83
2018-06-01T18:52:28.059Z,46.63
2018-06-01T18:53:28.055Z,46.73
2018-06-01T18:54:28.052Z,46.73
2018-06-01T18:55:28.044Z,47.11
2018-06-01T18:56:28.038Z,47.02
2018-06-01T18:57:28.032Z,46.63
2018-06-01T18:58:28.030Z,46.63
2018-06-01T18:59:28.021Z,46.73
2018-06-01T19:00:28.019Z,46.83
2018-06-01T19:01:28.012Z,46.63
2018-06-01T19:02:28.006Z,46.63
2018-06-01T19:03:28.000Z,46.73
2018-06-01T19:04:27.997Z,46.73
2018-06-01T19:05:27.991Z,46.05
2018-06-01T19:06:27.985Z,46.15
2018-06-01T19:07:27.981Z,46.73
2018-06-01T19:08:27.980Z,46.34
2018-06-01T19:09:27.970Z,46.63
2018-06-01T19:10:27.967Z,46.63
2018-06-01T19:11:27.960Z,47.11
2018-06-01T19:12:27.952Z,47.60
2018-06-01T19:13:27.948Z,47.11
2018-06-01T19:14:27.942Z,47.11
2018-06-01T19:15:27.937Z,47.11
2018-06-01T19:16:28.132Z,47.50
2018-06-01T19:17:27.978Z,48.47
2018-06-01T19:18:27.919Z,47.41
2018-06-01T19:19:27.914Z,47.79
2018-06-01T19:20:27.910Z,47.60
2018-06-01T19:21:27.904Z,48.08
2018-06-01T19:22:27.898Z,47.67
2018-06-01T19:23:27.895Z,47.69
2018-06-01T19:24:27.889Z,47.69
2018-06-01T19:25:27.885Z,47.79
2018-06-01T19:26:27.878Z,46.92
2018-06-01T19:27:27.873Z,47.02
2018-06-01T19:28:27.868Z,47.11
2018-06-01T19:29:27.863Z,46.70
2018-06-01T19:30:27.855Z,46.70
2018-06-01T19:31:27.852Z,46.80
2018-06-01T19:32:27.850Z,46.03
2018-06-01T19:33:27.841Z,46.92
2018-06-01T19:34:27.887Z,47.19
2018-06-01T19:35:27.830Z,46.92
2018-06-01T19:36:27.825Z,47.11
2018-06-01T19:37:27.820Z,46.90
2018-06-01T19:38:27.815Z,47.00
2018-06-01T19:39:27.809Z,47.38
2018-06-01T19:40:27.808Z,47.60
2018-06-01T19:41:27.800Z,47.58
2018-06-01T19:42:27.797Z,48.06
2018-06-01T19:43:27.786Z,48.06
2018-06-01T19:44:27.783Z,47.86
2018-06-01T19:45:27.776Z,47.58
2018-06-01T19:46:27.818Z,47.48
2018-06-01T19:47:27.764Z,47.67
2018-06-01T19:48:27.761Z,48.06
2018-06-01T19:49:27.757Z,47.48
2018-06-01T19:50:27.751Z,47.38
2018-06-01T19:51:27.745Z,47.09
2018-06-01T19:52:27.740Z,47.58
2018-06-01T19:53:27.734Z,47.48
2018-06-01T19:54:27.760Z,48.06
2018-06-01T19:55:27.723Z,48.06
2018-06-01T19:56:27.719Z,48.44
2018-06-01T19:57:27.713Z,48.54
2018-06-01T19:58:27.705Z,48.54
2018-06-01T19:59:27.705Z,48.44
2018-06-01T20:00:27.695Z,48.54
2018-06-01T20:01:27.689Z,48.54
2018-06-01T20:02:27.684Z,48.54
2018-06-01T20:03:27.677Z,48.54
2018-06-01T20:04:27.673Z,48.32
2018-06-01T20:05:27.668Z,48.13
2018-06-01T20:06:27.661Z,48.32
2018-06-01T20:07:27.658Z,48.71
2018-06-01T20:08:27.651Z,48.23
2018-06-01T20:09:27.645Z,48.71
2018-06-01T20:10:27.640Z,48.71
2018-06-01T20:11:27.637Z,48.71
2018-06-01T20:12:27.629Z,48.61
2018-06-01T20:13:27.623Z,48.61
2018-06-01T20:14:27.617Z,48.90
2018-06-01T20:15:27.612Z,48.81
2018-06-01T20:16:27.607Z,49.19
2018-06-01T20:17:27.601Z,49.19
2018-06-01T20:18:27.596Z,49.19
2018-06-01T20:19:27.589Z,49.58
2018-06-01T20:20:27.583Z,49.49
2018-06-01T20:21:27.577Z,49.68
2018-06-01T20:22:27.570Z,49.58
2018-06-01T20:23:27.566Z,49.77
2018-06-01T20:24:27.560Z,49.68
2018-06-01T20:25:27.555Z,49.58
2018-06-01T20:26:27.549Z,49.97
2018-06-01T20:27:27.547Z,49.85
2018-06-01T20:28:27.538Z,49.77
2018-06-01T20:29:27.533Z,49.65
2018-06-01T20:30:27.525Z,49.85
2018-06-01T20:31:27.520Z,49.85
2018-06-01T20:32:27.515Z,49.75
2018-06-01T20:33:27.509Z,49.65
2018-06-01T20:34:27.503Z,49.65
2018-06-01T20:35:27.497Z,50.23
2018-06-01T20:36:27.492Z,50.81
2018-06-01T20:37:27.485Z,51.87
2018-06-01T20:38:27.480Z,52.55
2018-06-01T20:39:27.474Z,52.65
2018-06-01T20:40:27.469Z,54.10
2018-06-01T20:41:27.463Z,55.35
2018-06-01T20:42:27.456Z,54.94
2018-06-01T20:43:27.451Z,54.97
2018-06-01T20:44:27.447Z,54.65
2018-06-01T20:45:27.450Z,54.94
2018-06-01T20:46:27.433Z,56.20
2018-06-01T20:47:27.426Z,56.48
2018-06-01T20:48:27.422Z,56.68
2018-06-01T20:49:27.416Z,56.39
2018-06-01T20:50:27.410Z,57.16
2018-06-01T20:51:27.448Z,57.06
2018-06-01T20:52:27.501Z,56.87
2018-06-01T20:53:27.392Z,57.04
2018-06-01T20:54:27.385Z,57.14
2018-06-01T20:55:27.380Z,57.90
2018-06-01T20:56:27.372Z,58.10
2018-06-01T20:57:27.366Z,58.48
2018-06-01T20:58:27.360Z,58.87
2018-06-01T20:59:27.359Z,59.64
2018-06-01T21:00:27.353Z,59.16
2018-06-01T21:01:27.346Z,60.03
2018-06-01T21:02:27.335Z,59.35
2018-06-01T21:03:27.329Z,60.41
2018-06-01T21:04:27.323Z,60.77
2018-06-01T21:05:27.318Z,61.47
2018-06-01T21:06:27.310Z,61.28
2018-06-01T21:07:27.307Z,61.35
2018-06-01T21:08:27.297Z,61.06
2018-06-01T21:09:27.291Z,61.74
2018-06-01T21:10:27.286Z,62.60
2018-06-01T21:11:27.278Z,62.51
2018-06-01T21:12:27.283Z,63.47
2018-06-01T21:13:27.267Z,63.95
2018-06-01T21:14:27.259Z,64.63
2018-06-01T21:15:27.253Z,64.40
2018-06-01T21:16:27.246Z,64.34
2018-06-01T21:17:27.241Z,65.01
2018-06-01T21:18:27.233Z,65.88
2018-06-01T21:19:27.227Z,65.66
2018-06-01T21:20:27.221Z,65.47
2018-06-01T21:21:27.264Z,64.89
2018-06-01T21:22:27.206Z,65.47
2018-06-01T21:23:27.201Z,65.66
2018-06-01T21:24:27.194Z,65.47
2018-06-01T21:25:27.190Z,65.66
2018-06-01T21:26:27.180Z,66.24
2018-06-01T21:27:27.173Z,66.14
2018-06-01T21:28:27.167Z,66.14
2018-06-01T21:29:27.168Z,65.47
2018-06-01T21:30:27.153Z,65.81
2018-06-01T21:31:27.146Z,67.07
2018-06-01T21:32:27.140Z,67.00
2018-06-01T21:33:27.133Z,66.33
2018-06-01T21:34:27.131Z,66.30
2018-06-01T21:35:27.119Z,66.88
2018-06-01T21:36:27.113Z,67.55
2018-06-01T21:37:27.105Z,67.46
2018-06-01T21:38:27.098Z,66.49
2018-06-01T21:39:27.093Z,66.97
2018-06-01T21:40:27.084Z,67.36
2018-06-01T21:41:27.078Z,67.46
2018-06-01T21:42:27.072Z,67.07
2018-06-01T21:43:27.064Z,67.94
2018-06-01T21:44:27.057Z,66.88
2018-06-01T21:45:27.049Z,67.65
2018-06-01T21:46:27.042Z,67.74
2018-06-01T21:47:27.036Z,68.32
2018-06-01T21:48:27.028Z,68.90
2018-06-01T21:49:27.021Z,68.80
2018-06-01T21:50:27.015Z,68.80
2018-06-01T21:51:27.006Z,68.04
2018-06-01T21:52:27.000Z,68.99
2018-06-01T21:53:26.993Z,68.99
2018-06-01T21:54:26.984Z,67.52
2018-06-01T21:55:26.978Z,67.52
2018-06-01T21:56:26.973Z,67.03
2018-06-01T21:57:26.962Z,67.33
2018-06-01T21:58:26.955Z,67.81
2018-06-01T21:59:26.949Z,68.10
2018-06-01T22:00:26.942Z,68.96
2018-06-01T22:01:26.935Z,69.15
2018-06-01T22:02:26.927Z,69.25
2018-06-01T22:03:26.920Z,68.48
2018-06-01T22:04:26.913Z,69.15
2018-06-01T22:05:26.910Z,69.15
2018-06-01T22:06:26.897Z,68.48
2018-06-01T22:07:26.892Z,68.10
2018-06-01T22:08:28.114Z,68.48
2018-06-01T22:09:26.910Z,67.90
2018-06-01T22:10:26.888Z,67.61
2018-06-01T22:11:26.869Z,67.77
2018-06-01T22:12:26.865Z,68.44
2018-06-01T22:13:26.861Z,69.41
2018-06-01T22:14:26.877Z,69.79
2018-06-01T22:15:26.859Z,70.09
2018-06-01T22:16:26.857Z,70.76
2018-06-01T22:17:26.840Z,69.41
2018-06-01T22:18:26.842Z,70.09
2018-06-01T22:19:26.838Z,69.12
2018-06-01T22:20:26.825Z,68.64
2018-06-01T22:21:26.824Z,69.02
2018-06-01T22:22:26.816Z,69.60
2018-06-01T22:23:26.803Z,69.76
2018-06-01T22:24:26.799Z,70.15
2018-06-01T22:25:26.782Z,71.11
2018-06-01T22:26:26.778Z,71.72
2018-06-01T22:27:26.773Z,71.53
2018-06-01T22:28:26.764Z,71.81
2018-06-01T22:29:26.755Z,71.72
2018-06-01T22:30:26.752Z,71.14
2018-06-01T22:31:26.727Z,71.69
2018-06-01T22:32:26.735Z,71.49
2018-06-01T22:33:26.726Z,71.30
2018-06-01T22:34:26.708Z,70.92
2018-06-01T22:35:26.684Z,71.59
2018-06-01T22:36:26.693Z,71.11
2018-06-01T22:37:26.691Z,70.95
2018-06-01T22:38:26.681Z,71.04
2018-06-01T22:39:26.665Z,70.86
2018-06-01T22:40:26.666Z,71.34
2018-06-01T22:41:26.647Z,71.04
2018-06-01T22:42:26.657Z,71.24
2018-06-01T22:43:26.649Z,71.04
2018-06-01T22:44:26.641Z,71.40
2018-06-01T22:45:26.609Z,71.40
2018-06-01T22:46:26.625Z,71.24
2018-06-01T22:47:26.613Z,71.88
2018-06-01T22:48:26.600Z,71.40
2018-06-01T22:49:26.605Z,71.69
2018-06-01T22:50:26.582Z,71.97
2018-06-01T22:51:26.590Z,72.36
2018-06-01T22:52:26.577Z,72.39
2018-06-01T22:53:26.570Z,71.01
2018-06-01T22:54:26.563Z,71.49
2018-06-01T22:55:26.561Z,72.26
2018-06-01T22:56:26.544Z,72.45
2018-06-01T22:57:26.529Z,72.07
2018-06-01T22:58:26.528Z,72.45
2018-06-01T22:59:26.527Z,72.36
2018-06-01T23:00:26.514Z,72.68
2018-06-01T23:01:26.510Z,72.26
2018-06-01T23:02:26.488Z,71.69
2018-06-01T23:03:26.488Z,71.30
2018-06-01T23:04:26.485Z,71.81
2018-06-01T23:05:26.452Z,72.17
2018-06-01T23:06:26.450Z,72.26
2018-06-01T23:07:26.467Z,72.78
2018-06-01T23:08:26.449Z,72.55
2018-06-01T23:09:26.418Z,73.36
2018-06-01T23:10:26.452Z,71.24
2018-06-01T23:11:26.418Z,72.26
2018-06-01T23:12:26.421Z,72.68
2018-06-01T23:13:26.422Z,72.59
2018-06-01T23:14:26.398Z,69.60
2018-06-01T23:15:26.405Z,69.85
2018-06-01T23:16:26.391Z,70.28
2018-06-01T23:17:26.390Z,70.95
2018-06-01T23:18:26.367Z,71.24
2018-06-01T23:19:26.360Z,71.24
2018-06-01T23:20:26.364Z,71.34
2018-06-01T23:21:26.362Z,71.78
2018-06-01T23:22:26.336Z,70.86
2018-06-01T23:23:26.331Z,71.81
2018-06-01T23:24:26.323Z,71.72
2018-06-01T23:25:26.351Z,71.53
2018-06-01T23:26:26.328Z,72.01
2018-06-01T23:27:26.315Z,72.30
2018-06-01T23:28:26.307Z,72.39
2018-06-01T23:29:26.300Z,72.11
2018-06-01T23:30:26.283Z,71.24
2018-06-01T23:31:26.287Z,69.70
2018-06-01T23:32:26.284Z,69.12
2018-06-01T23:33:26.277Z,69.02
2018-06-01T23:34:26.269Z,69.02
2018-06-01T23:35:26.259Z,69.31
2018-06-01T23:36:26.252Z,69.02
2018-06-01T23:37:26.247Z,69.60
2018-06-01T23:38:26.234Z,69.89
2018-06-01T23:39:26.225Z,69.79
2018-06-01T23:40:26.222Z,69.60
2018-06-01T23:41:26.209Z,69.12
2018-06-01T23:42:26.200Z,68.93
2018-06-01T23:43:26.187Z,69.12
2018-06-01T23:44:26.187Z,68.93
2018-06-01T23:45:26.173Z,69.51
2018-06-01T23:46:26.164Z,68.87
2018-06-01T23:47:26.163Z,69.02
2018-06-01T23:48:26.156Z,69.89
2018-06-01T23:49:26.142Z,71.72
2018-06-01T23:50:26.150Z,71.81
2018-06-01T23:51:26.123Z,72.30
2018-06-01T23:52:26.092Z,72.59
2018-06-01T23:53:26.083Z,73.26
2018-06-01T23:54:26.083Z,73.07
2018-06-01T23:55:26.068Z,72.88
2018-06-01T23:56:26.071Z,73.74
2018-06-01T23:57:26.055Z,74.90
2018-06-01T23:58:26.047Z,74.13
2018-06-01T23:59:26.037Z,74.13
